Zeballos, Canada
Current Conditions -  °F | °C
As of 8:00 AM on Sunday 21 Dec 2014 (Local Time) from CYZT Reporting Station
Rain Showers Rain Showers  
Wind Chill: 43°   Ceiling: 3200
Heat Index: 43°   Visibility: 15mi
Dew Point: 43°   Wind: 3mph
Humidity: 100%   Direction: 170°S
Pressure: 29.72"   Gusts: NA
Location:  49.98°N, 126.85°W
Report Text: CYZT 211600Z 17003KT 15SM -SHRA BKN032 BKN058 OVC150 06/06 A2972 RMK SC6SC1AC1 SLP064
Loading
Personal Weather Stations






























Interactive Weather Map New forecast layout! Learn more

10-Day Weather Forecast

Advertisements
Track Severe Weather on mobile